Time;durP1;ratioP1;P1;durP2;ratioP2;P2;SDS_P1;SDS_P2;PMS_P1;PMS_P2;Temp;Humidity;BMP_temperature;BMP_pressure;BME280_temperature;BME280_humidity;BME280_pressure;Samples;Min_cycle;Max_cycle;Signal;HPM_P1;HPM_P2
2020/12/23 00:00:48;;;;;;;301.80;287.67;;;11.10;99.90;;;;;;6186555;23;20406;-82
2020/12/23 00:03:15;;;;;;;299.87;285.77;;;11.10;99.90;;;;;;6196505;23;20420;-82
2020/12/23 00:05:45;;;;;;;297.33;283.03;;;11.10;99.90;;;;;;6186555;23;20405;-82
2020/12/23 00:08:13;;;;;;;295.90;281.97;;;11.20;99.90;;;;;;6185981;23;20876;-82
2020/12/23 00:10:42;;;;;;;307.83;292.77;;;11.20;99.90;;;;;;6186709;23;20405;-82
2020/12/23 00:13:08;;;;;;;308.23;294.27;;;11.20;99.90;;;;;;6184963;23;20401;-82
2020/12/23 00:15:36;;;;;;;303.73;289.27;;;11.20;99.90;;;;;;6186478;23;20406;-82
2020/12/23 00:18:03;;;;;;;310.60;296.90;;;11.30;99.90;;;;;;6196093;23;20504;-82
2020/12/23 00:20:29;;;;;;;313.07;298.90;;;11.20;99.90;;;;;;6185852;23;20401;-82
2020/12/23 00:22:55;;;;;;;319.27;304.37;;;11.30;99.90;;;;;;6186248;23;20738;-82
2020/12/23 00:25:23;;;;;;;324.10;309.53;;;11.30;99.90;;;;;;6196051;23;20415;-82
2020/12/23 00:27:50;;;;;;;327.80;312.87;;;11.20;99.90;;;;;;6194872;23;20436;-82
2020/12/23 00:30:17;;;;;;;327.40;313.00;;;11.30;99.90;;;;;;6186482;23;20432;-82
2020/12/23 00:32:49;;;;;;;327.33;311.90;;;11.20;99.90;;;;;;6186099;23;20401;-82
2020/12/23 00:35:16;;;;;;;327.00;312.00;;;11.20;99.90;;;;;;6186324;23;20404;-82
2020/12/23 00:37:44;;;;;;;318.33;304.43;;;11.10;99.90;;;;;;6195783;23;20405;-82
2020/12/23 00:40:12;;;;;;;314.87;301.20;;;11.20;99.90;;;;;;6196040;23;20479;-82
2020/12/23 00:42:39;;;;;;;318.37;304.67;;;11.20;99.90;;;;;;6184665;23;20401;-82
2020/12/23 00:45:06;;;;;;;325.53;310.53;;;11.30;99.90;;;;;;6186337;23;20409;-82
2020/12/23 00:47:34;;;;;;;317.10;302.17;;;11.30;99.90;;;;;;6185922;23;20408;-82
2020/12/23 00:50:02;;;;;;;316.50;302.30;;;11.20;99.90;;;;;;6186384;23;20496;-82
2020/12/23 00:52:29;;;;;;;315.27;301.20;;;11.30;99.90;;;;;;6195481;23;20424;-82
2020/12/23 00:54:56;;;;;;;331.03;315.40;;;11.30;99.90;;;;;;6186019;23;20464;-82
2020/12/23 00:57:26;;;;;;;329.47;313.97;;;11.30;99.90;;;;;;6184464;23;21209;-82
2020/12/23 00:59:54;;;;;;;330.00;314.80;;;11.30;99.90;;;;;;6195835;23;20436;-82
2020/12/23 01:02:24;;;;;;;316.90;303.20;;;11.40;99.90;;;;;;6185530;23;20401;-82
2020/12/23 01:04:50;;;;;;;308.73;294.80;;;11.40;99.90;;;;;;6186124;23;20872;-82
2020/12/23 01:07:17;;;;;;;304.57;290.60;;;11.30;99.90;;;;;;6185833;23;20484;-81
2020/12/23 01:09:49;;;;;;;296.80;283.57;;;11.30;99.90;;;;;;6186214;23;20408;-81
2020/12/23 01:12:15;;;;;;;298.00;283.87;;;11.30;99.90;;;;;;6194379;23;20416;-81
2020/12/23 01:14:42;;;;;;;298.47;284.87;;;11.30;99.90;;;;;;6195883;23;20492;-81
2020/12/23 01:17:08;;;;;;;293.67;280.47;;;11.20;99.90;;;;;;6185531;23;20408;-81
2020/12/23 01:19:38;;;;;;;287.23;274.13;;;11.30;99.90;;;;;;6196054;23;20448;-82
2020/12/23 01:22:05;;;;;;;290.87;276.97;;;11.30;99.90;;;;;;6185880;23;20408;-82
2020/12/23 01:24:32;;;;;;;292.77;277.47;;;11.30;99.90;;;;;;6185488;23;20523;-82
2020/12/23 01:26:59;;;;;;;298.50;284.30;;;11.20;99.90;;;;;;6185398;23;20436;-81
2020/12/23 01:29:26;;;;;;;304.57;290.13;;;11.20;99.90;;;;;;6196631;23;20417;-82
2020/12/23 01:31:53;;;;;;;300.87;286.67;;;11.30;99.90;;;;;;6185340;23;20405;-82
2020/12/23 01:34:19;;;;;;;301.80;286.50;;;11.30;99.90;;;;;;6195609;23;20406;-81
2020/12/23 01:36:49;;;;;;;307.07;292.43;;;11.40;99.90;;;;;;6185800;23;20459;-81
2020/12/23 01:39:16;;;;;;;307.80;292.50;;;11.40;99.90;;;;;;6197569;23;20451;-81
2020/12/23 01:41:42;;;;;;;310.83;295.70;;;11.50;99.90;;;;;;6185689;23;20436;-81
2020/12/23 01:44:08;;;;;;;306.70;291.37;;;11.40;99.90;;;;;;6194162;23;20402;-81
2020/12/23 01:46:37;;;;;;;304.07;289.10;;;11.40;99.90;;;;;;6185632;23;20408;-81
2020/12/23 01:49:05;;;;;;;299.77;285.53;;;11.40;99.90;;;;;;6185568;23;20412;-81
2020/12/23 01:51:34;;;;;;;300.07;286.23;;;11.40;99.90;;;;;;6185791;23;20401;-82
2020/12/23 01:54:02;;;;;;;305.47;290.57;;;11.40;99.90;;;;;;6195088;23;20723;-81
2020/12/23 01:56:30;;;;;;;298.50;284.40;;;11.40;99.90;;;;;;6185503;23;20402;-81
2020/12/23 01:59:00;;;;;;;298.10;284.40;;;11.40;99.90;;;;;;6184058;23;20448;-82
2020/12/23 02:01:37;;;;;;;291.13;277.10;;;11.40;99.90;;;;;;6185795;23;20429;-81
2020/12/23 02:04:03;;;;;;;283.70;270.87;;;11.40;99.90;;;;;;6185777;23;20407;-82
2020/12/23 02:06:35;;;;;;;281.00;267.90;;;11.40;99.90;;;;;;6195330;23;20405;-82
2020/12/23 02:09:04;;;;;;;283.60;270.97;;;11.30;99.90;;;;;;6185542;23;20401;-82
2020/12/23 02:11:32;;;;;;;279.07;265.40;;;11.30;99.90;;;;;;6185138;23;20441;-82
2020/12/23 02:14:00;;;;;;;274.83;262.57;;;11.30;99.90;;;;;;6183667;23;20437;-81
2020/12/23 02:16:28;;;;;;;276.90;264.27;;;11.40;99.90;;;;;;6195423;23;20440;-82
2020/12/23 02:18:56;;;;;;;266.73;254.70;;;11.30;99.90;;;;;;6185033;23;20437;-82
2020/12/23 02:21:24;;;;;;;257.33;246.20;;;11.30;99.90;;;;;;6195497;23;20410;-82
2020/12/23 02:23:52;;;;;;;252.37;241.40;;;11.40;99.90;;;;;;6118341;23;20437;-82
2020/12/23 02:26:19;;;;;;;243.47;232.60;;;11.30;99.90;;;;;;6185344;23;20516;-82
2020/12/23 02:28:45;;;;;;;243.63;232.93;;;11.40;99.90;;;;;;6183521;23;20405;-81
2020/12/23 02:31:11;;;;;;;236.97;226.87;;;11.30;99.90;;;;;;6185231;23;20409;-81
2020/12/23 02:33:39;;;;;;;234.73;224.37;;;11.30;99.90;;;;;;6185514;23;20896;-82
2020/12/23 02:36:06;;;;;;;232.77;223.20;;;11.20;99.90;;;;;;6185244;23;20452;-81
2020/12/23 02:38:32;;;;;;;228.43;218.80;;;11.30;99.90;;;;;;6185447;23;20729;-82
2020/12/23 02:41:06;;;;;;;226.83;217.23;;;11.30;99.90;;;;;;6185023;23;20905;-82
2020/12/23 02:43:38;;;;;;;231.80;222.30;;;11.20;99.90;;;;;;6184343;23;20480;-82
2020/12/23 02:46:05;;;;;;;231.30;221.30;;;11.20;99.90;;;;;;6197018;23;20416;-81
2020/12/23 02:48:35;;;;;;;230.77;220.97;;;11.20;99.90;;;;;;6187396;23;20783;-81
2020/12/23 02:51:01;;;;;;;234.70;224.90;;;11.10;99.90;;;;;;6186906;23;20405;-82
2020/12/23 02:53:28;;;;;;;230.40;220.30;;;11.10;99.90;;;;;;6187137;23;20782;-81
2020/12/23 02:55:54;;;;;;;226.33;216.63;;;11.20;99.90;;;;;;6197101;23;20495;-81
2020/12/23 02:58:24;;;;;;;228.30;218.60;;;11.20;99.90;;;;;;6185310;23;20409;-82
2020/12/23 03:00:51;;;;;;;223.87;214.47;;;11.30;99.90;;;;;;6197447;23;20397;-82
2020/12/23 03:03:18;;;;;;;225.47;215.80;;;11.30;99.90;;;;;;6196848;23;20436;-83
2020/12/23 03:05:45;;;;;;;223.67;214.50;;;11.20;99.90;;;;;;6187020;23;20401;-82
2020/12/23 03:08:13;;;;;;;220.30;210.80;;;11.30;99.90;;;;;;6196721;23;20397;-82
2020/12/23 03:10:41;;;;;;;219.07;209.43;;;11.20;99.90;;;;;;6196974;23;20397;-82
2020/12/23 03:13:13;;;;;;;212.13;202.60;;;11.30;99.90;;;;;;6195075;23;20412;-82
2020/12/23 03:15:44;;;;;;;207.57;198.60;;;11.30;99.90;;;;;;6196448;23;20487;-81
2020/12/23 03:18:13;;;;;;;200.40;191.33;;;11.30;99.90;;;;;;6187231;23;20861;-82
2020/12/23 03:20:40;;;;;;;195.60;186.80;;;11.20;99.90;;;;;;6196214;23;20443;-82
2020/12/23 03:23:06;;;;;;;193.27;184.70;;;11.40;99.90;;;;;;6196880;23;20936;-82
2020/12/23 03:25:33;;;;;;;185.67;177.20;;;11.30;99.90;;;;;;6186834;23;20433;-82
2020/12/23 03:28:01;;;;;;;181.43;173.40;;;11.30;99.90;;;;;;6185277;23;20460;-81
2020/12/23 03:30:29;;;;;;;179.80;171.57;;;11.30;99.90;;;;;;6196681;23;20517;-82
2020/12/23 03:33:31;;;;;;;184.40;176.40;;;11.30;99.90;;;;;;6120207;23;20472;-83
2020/12/23 03:36:00;;;;;;;174.30;166.70;;;11.20;99.90;;;;;;6186870;23;20401;-82
2020/12/23 03:38:27;;;;;;;179.87;171.87;;;11.20;99.90;;;;;;6196491;23;20509;-82
2020/12/23 03:40:54;;;;;;;196.93;188.20;;;11.30;99.90;;;;;;6196304;23;20826;-82
2020/12/23 03:43:24;;;;;;;199.77;191.37;;;11.30;99.90;;;;;;6185305;23;20492;-82
2020/12/23 03:45:51;;;;;;;201.10;192.97;;;11.30;99.90;;;;;;6186805;23;20460;-81
2020/12/23 03:48:20;;;;;;;190.00;182.30;;;11.30;99.90;;;;;;6196944;23;20409;-82
2020/12/23 03:50:47;;;;;;;205.20;196.70;;;11.40;99.90;;;;;;6186433;23;21030;-81
2020/12/23 03:53:14;;;;;;;205.97;197.47;;;11.30;99.90;;;;;;6186122;23;20913;-82
2020/12/23 03:55:40;;;;;;;212.53;204.13;;;11.30;99.90;;;;;;6196237;23;20467;-81
2020/12/23 03:58:08;;;;;;;199.43;191.63;;;11.40;99.90;;;;;;6194881;23;20472;-82
2020/12/23 04:00:37;;;;;;;212.83;203.83;;;11.40;99.90;;;;;;6186598;23;20442;-81
2020/12/23 04:03:04;;;;;;;221.97;212.77;;;11.30;99.90;;;;;;6186661;23;20406;-82
2020/12/23 04:05:31;;;;;;;234.57;225.57;;;11.20;99.90;;;;;;6186552;23;20408;-82
2020/12/23 04:07:58;;;;;;;228.40;219.20;;;11.30;99.90;;;;;;6196512;23;20734;-82
2020/12/23 04:10:24;;;;;;;232.97;223.40;;;11.20;99.90;;;;;;6186528;23;20436;-83
2020/12/23 04:12:55;;;;;;;238.33;228.57;;;11.20;99.90;;;;;;6185126;23;20470;-82
2020/12/23 04:15:21;;;;;;;245.93;235.80;;;11.10;99.90;;;;;;6196380;23;20416;-82
2020/12/23 04:17:48;;;;;;;251.00;240.40;;;11.20;99.90;;;;;;6186187;23;20725;-82
2020/12/23 04:20:14;;;;;;;245.67;235.87;;;11.20;99.90;;;;;;6185981;23;20807;-81
2020/12/23 04:22:50;;;;;;;249.90;240.27;;;11.20;99.90;;;;;;6186112;23;20401;-81
2020/12/23 04:25:25;;;;;;;257.47;246.57;;;11.20;99.90;;;;;;6196288;23;20443;-82
2020/12/23 04:27:56;;;;;;;259.37;248.40;;;11.20;99.90;;;;;;6194215;23;20401;-82
2020/12/23 04:30:25;;;;;;;269.50;257.70;;;11.20;99.90;;;;;;6196080;23;20433;-82
2020/12/23 04:32:53;;;;;;;275.43;263.93;;;11.30;99.90;;;;;;6186037;23;20738;-82
2020/12/23 04:35:23;;;;;;;281.27;269.87;;;11.30;99.90;;;;;;6185951;23;20412;-83
2020/12/23 04:37:59;;;;;;;267.27;256.70;;;11.30;99.90;;;;;;6196164;23;20789;-83
2020/12/23 04:40:57;;;;;;;;;;;;;;;;;;;;;
2020/12/23 04:44:06;;;;;;;266.83;255.23;;;11.40;99.90;;;;;;6123770;23;20417;-83
2020/12/23 04:46:36;;;;;;;270.40;259.83;;;11.40;99.90;;;;;;6018155;23;20414;-83
2020/12/23 04:49:08;;;;;;;277.43;266.60;;;11.40;99.90;;;;;;6191540;23;20417;-83
2020/12/23 04:52:00;;;;;;;284.77;273.97;;;11.50;99.90;;;;;;6186252;23;20401;-83
2020/12/23 04:57:43;;;;;;;275.87;265.53;;;11.40;99.90;;;;;;6164607;23;20413;-82
2020/12/23 05:00:21;;;;;;;;;;;;;;;;;;;;;
2020/12/23 05:03:14;;;;;;;263.73;253.73;;;11.40;99.90;;;;;;6195747;23;20865;-82
2020/12/23 05:05:44;;;;;;;268.70;258.60;;;11.50;99.90;;;;;;6171920;23;20435;-83
2020/12/23 05:08:20;;;;;;;;;;;;;;;;;;;;;
2020/12/23 05:11:32;;;;;;;254.57;244.57;;;11.30;99.90;;;;;;6196198;23;20397;-83
2020/12/23 05:20:29;;;;;;;259.83;249.83;;;11.30;99.90;;;;;;6166004;23;20445;-84
2020/12/23 05:23:01;;;;;;;253.27;243.53;;;11.30;99.90;;;;;;6185371;23;20401;-84
2020/12/23 05:25:32;;;;;;;246.17;236.47;;;11.30;99.90;;;;;;6185764;23;20516;-83
2020/12/23 05:27:59;;;;;;;245.10;235.50;;;11.40;99.90;;;;;;6183798;23;20397;-82
2020/12/23 05:31:18;;;;;;;252.40;242.47;;;11.40;99.90;;;;;;6185596;23;20415;-85
2020/12/23 05:34:18;;;;;;;233.63;224.00;;;11.50;99.90;;;;;;6084605;23;20467;-84
2020/12/23 05:37:30;;;;;;;222.07;213.37;;;11.50;99.90;;;;;;6108002;23;20499;-83
2020/12/23 05:39:57;;;;;;;209.47;201.07;;;11.40;99.90;;;;;;6178931;23;20456;-83
2020/12/23 05:42:25;;;;;;;210.53;201.93;;;11.60;99.90;;;;;;6193840;23;20463;-83
2020/12/23 05:44:54;;;;;;;218.77;210.07;;;11.50;99.90;;;;;;6195415;23;20417;-83
2020/12/23 05:47:21;;;;;;;217.37;208.87;;;11.50;99.90;;;;;;6185715;23;20484;-78
2020/12/23 05:49:57;;;;;;;214.80;206.40;;;11.50;99.90;;;;;;6185943;23;20401;-82
2020/12/23 05:53:02;;;;;;;229.23;219.47;;;11.50;99.90;;;;;;6185311;23;20401;-84
2020/12/23 05:55:32;;;;;;;214.17;205.70;;;11.60;99.90;;;;;;6166354;23;20444;-83
2020/12/23 05:58:00;;;;;;;218.67;210.13;;;11.50;99.90;;;;;;6183554;23;20404;-82
2020/12/23 06:01:06;;;;;;;230.27;220.77;;;11.50;99.90;;;;;;6195157;23;20487;-83
2020/12/23 06:03:54;;;;;;;227.37;218.57;;;11.50;99.90;;;;;;6195066;23;20408;-84
2020/12/23 06:07:15;;;;;;;225.40;216.30;;;11.40;99.90;;;;;;6195099;23;20484;-82
2020/12/23 06:10:17;;;;;;;;;;;;;;;;;;;;;
2020/12/23 06:13:10;;;;;;;224.20;215.10;;;11.40;99.90;;;;;;6194021;23;20397;-82
2020/12/23 06:15:44;;;;;;;230.47;221.30;;;11.30;99.90;;;;;;6195526;23;20401;-83
2020/12/23 06:18:42;;;;;;;231.07;221.77;;;11.20;99.90;;;;;;6185102;23;20731;-83
2020/12/23 06:21:16;;;;;;;222.80;213.50;;;11.20;99.90;;;;;;6195338;23;20869;-83
2020/12/23 06:23:43;;;;;;;218.77;209.47;;;11.10;99.90;;;;;;6195213;23;20851;-82
2020/12/23 06:26:18;;;;;;;224.83;215.67;;;11.10;99.90;;;;;;6195225;23;20408;-82
2020/12/23 06:28:53;;;;;;;225.50;216.10;;;11.00;99.90;;;;;;6184719;23;20400;-82
2020/12/23 06:31:51;;;;;;;228.43;219.13;;;11.00;99.90;;;;;;6195464;23;20451;-82
2020/12/23 06:35:00;;;;;;;;;;;;;;;;;;;;;
2020/12/23 06:38:03;;;;;;;;;;;;;;;;;;;;;
2020/12/23 06:40:29;;;;;;;236.40;226.70;;;10.90;99.90;;;;;;6158389;23;20523;-83
2020/12/23 06:43:15;;;;;;;;;;;;;;;;;;;;;
2020/12/23 06:45:54;;;;;;;236.63;226.80;;;10.80;99.90;;;;;;6184559;23;20476;-82
2020/12/23 06:48:21;;;;;;;240.07;229.87;;;10.80;99.90;;;;;;6186619;23;20458;-81
2020/12/23 06:50:56;;;;;;;243.30;233.10;;;10.70;99.90;;;;;;6185264;23;20481;-83
2020/12/23 06:53:38;;;;;;;248.57;238.10;;;10.80;99.90;;;;;;6185407;23;20393;-81
2020/12/23 06:56:05;;;;;;;260.93;250.13;;;10.80;99.90;;;;;;6184830;23;20398;-81
2020/12/23 06:58:39;;;;;;;258.20;247.30;;;10.80;99.90;;;;;;6194481;23;20405;-81
2020/12/23 07:01:21;;;;;;;263.07;251.90;;;10.90;99.90;;;;;;6185244;23;20465;-82
2020/12/23 07:03:48;;;;;;;284.90;272.33;;;10.80;99.90;;;;;;6185359;23;20405;-82
2020/12/23 07:06:34;;;;;;;260.80;249.50;;;10.80;99.90;;;;;;6185156;23;20398;-81
2020/12/23 07:09:13;;;;;;;260.60;249.10;;;10.70;99.90;;;;;;6185014;23;20885;-81
2020/12/23 07:11:39;;;;;;;267.87;255.87;;;10.80;99.90;;;;;;6184801;23;20885;-81
2020/12/23 07:14:06;;;;;;;268.60;255.93;;;10.80;99.90;;;;;;6193546;23;20908;-82
2020/12/23 07:16:40;;;;;;;272.83;259.67;;;10.70;99.90;;;;;;6185181;23;20416;-81
2020/12/23 07:19:07;;;;;;;257.37;244.50;;;10.80;99.90;;;;;;6194920;23;20428;-81
2020/12/23 07:21:43;;;;;;;256.17;243.70;;;10.70;99.90;;;;;;6195316;23;20452;-81
2020/12/23 07:24:40;;;;;;;255.93;243.23;;;10.70;99.90;;;;;;6184725;23;20951;-83
2020/12/23 07:27:54;;;;;;;;;;;;;;;;;;;;;
2020/12/23 07:30:28;;;;;;;262.63;249.10;;;10.60;99.90;;;;;;6177958;23;20412;-81
2020/12/23 07:33:01;;;;;;;273.30;259.80;;;10.60;99.90;;;;;;6186614;23;20451;-81
2020/12/23 07:35:31;;;;;;;308.80;293.07;;;10.60;99.90;;;;;;6195989;23;20489;-82
2020/12/23 07:38:02;;;;;;;301.10;286.87;;;10.60;99.90;;;;;;6196887;23;20417;-81
2020/12/23 07:44:04;;;;;;;;;;;;;;;;;;;;;
2020/12/23 07:46:58;;;;;;;287.63;274.40;;;10.70;99.90;;;;;;6183845;23;20412;-82
2020/12/23 07:49:29;;;;;;;289.60;276.17;;;10.70;99.90;;;;;;6113637;23;20509;-82
2020/12/23 07:51:56;;;;;;;290.13;276.13;;;10.60;99.90;;;;;;6185754;23;20401;-82
2020/12/23 07:54:23;;;;;;;287.13;273.97;;;10.60;99.90;;;;;;6186308;23;20944;-81
2020/12/23 07:56:49;;;;;;;291.40;277.90;;;10.60;99.90;;;;;;6186313;23;20405;-81
2020/12/23 07:59:23;;;;;;;288.63;275.20;;;10.60;99.90;;;;;;6184348;23;20487;-81
2020/12/23 08:01:52;;;;;;;285.90;272.60;;;10.50;99.90;;;;;;6186537;23;20400;-81
2020/12/23 08:04:18;;;;;;;290.37;276.20;;;10.60;99.90;;;;;;6186322;23;20397;-82
2020/12/23 08:06:45;;;;;;;288.73;274.73;;;10.60;99.90;;;;;;6196067;23;20417;-81
2020/12/23 08:09:11;;;;;;;280.70;266.20;;;10.60;99.90;;;;;;6186345;23;20416;-81
2020/12/23 08:11:41;;;;;;;284.80;271.03;;;10.50;99.90;;;;;;6196154;23;20408;-82
2020/12/23 08:17:46;;;;;;;288.60;274.30;;;10.50;99.90;;;;;;5929915;23;20504;-81
2020/12/23 08:20:15;;;;;;;291.23;277.27;;;10.40;99.90;;;;;;6138186;23;20441;-81
2020/12/23 08:22:57;;;;;;;284.10;270.50;;;10.50;99.90;;;;;;6185542;23;20786;-81
2020/12/23 08:25:29;;;;;;;279.83;266.97;;;10.50;99.90;;;;;;6186131;23;20488;-81
2020/12/23 08:27:57;;;;;;;281.93;268.87;;;10.50;99.90;;;;;;6184516;23;20475;-83
2020/12/23 08:30:49;;;;;;;283.23;270.47;;;10.60;99.90;;;;;;6186021;23;20397;-83
2020/12/23 08:33:20;;;;;;;286.27;273.13;;;10.60;99.90;;;;;;6196213;23;20405;-84
2020/12/23 08:35:54;;;;;;;285.47;272.47;;;10.60;99.90;;;;;;6182846;23;20488;-82
2020/12/23 08:38:28;;;;;;;286.00;272.97;;;10.70;99.90;;;;;;6189502;23;20437;-82
2020/12/23 08:40:58;;;;;;;288.17;275.30;;;10.80;99.90;;;;;;6179586;23;20437;-82
2020/12/23 08:46:45;;;;;;;293.80;280.97;;;10.90;99.90;;;;;;6015923;23;20509;-81
2020/12/23 08:49:22;;;;;;;290.07;277.20;;;11.00;99.90;;;;;;6166904;23;20441;-82
2020/12/23 08:51:49;;;;;;;289.37;275.80;;;11.00;99.90;;;;;;6194513;23;20439;-82
2020/12/23 08:54:20;;;;;;;279.80;267.40;;;11.10;99.90;;;;;;6182503;23;20405;-82
2020/12/23 08:56:47;;;;;;;281.70;268.80;;;11.00;99.90;;;;;;6195296;23;20405;-83
2020/12/23 08:59:24;;;;;;;277.90;265.10;;;11.00;99.90;;;;;;6182950;23;20415;-81
2020/12/23 09:02:09;;;;;;;266.00;254.07;;;11.10;99.90;;;;;;6167638;23;20441;-81
2020/12/23 09:04:44;;;;;;;269.00;256.90;;;11.10;99.90;;;;;;6195956;23;20740;-81
2020/12/23 09:07:22;;;;;;;279.80;267.30;;;11.20;99.90;;;;;;6185731;23;20407;-81
2020/12/23 09:10:01;;;;;;;279.60;267.27;;;11.20;99.90;;;;;;6185165;23;20884;-81
2020/12/23 09:12:42;;;;;;;272.03;260.33;;;11.30;99.90;;;;;;6193761;23;20478;-81
2020/12/23 09:15:28;;;;;;;280.03;267.30;;;11.30;99.90;;;;;;6195214;23;20861;-81
2020/12/23 11:30:14;;;;;;;140.43;133.80;;;12.00;99.90;;;;;;6129991;23;20560;-86
2020/12/23 12:38:02;;;;;;;217.67;209.13;;;11.90;99.90;;;;;;6109503;23;20516;-85
2020/12/23 12:40:35;;;;;;;220.70;212.10;;;11.90;99.90;;;;;;6087091;23;20456;-80
2020/12/23 15:05:20;;;;;;;121.10;116.40;;;11.70;99.90;;;;;;6185363;23;20765;-85
2020/12/23 15:08:14;;;;;;;123.20;118.50;;;11.60;99.90;;;;;;6074214;23;20917;-85
2020/12/23 15:10:46;;;;;;;112.90;108.50;;;11.70;99.90;;;;;;6206968;23;20416;-83
2020/12/23 15:13:44;;;;;;;112.97;108.67;;;11.70;99.90;;;;;;6146598;23;20456;-83
2020/12/23 15:16:11;;;;;;;115.23;110.93;;;11.70;99.90;;;;;;6226604;23;20494;-84
2020/12/23 15:38:13;;;;;;;79.63;76.60;;;11.60;99.90;;;;;;6062152;23;20416;-82
2020/12/23 15:44:40;;;;;;;;;;;;;;;;;;;;;
2020/12/23 16:06:53;;;;;;;132.03;126.83;;;11.30;99.90;;;;;;5879694;24;20440;-88
2020/12/23 17:53:38;;;;;;;;;;;;;;;;;;;;;
